Startpagina
METAR-TAF:

METAR-TAF

Vliegvelden :

Aeroporto di Pantelleria

Pantelleria, Italië

breedte: 36-49N, lengte: 011-58E, hoogte: 191 m

Actueel weer

Dit bericht is 7 uur en het 40 minuten geleden gemaakt, om 18:50 UTC
Wind 9 kt uit het westzuidwesten
Temperatuur 13°C
Vochtigheid 77%
Druk 1023 hPa
Zicht 10 km of meer
geen wolken onder 1500 m en geen cumulonimbus

METAR: LICG 281850Z 24009KT CAVOK 13/09 Q1023

Tijdstip: 03:30 (02:30 UTC)

Verwachting

Dit bericht is 9 uur en het 30 minuten geleden gemaakt, om 17:00 UTC
Verwachting geldig van 28 om 18 UTC tot 29 om 03 UTC
Wind 14 kt uit het westnoordwesten
Zicht 10 km of meer
geen wolken onder 1500 m en geen cumulonimbus

TAF: LICG 281700Z 2818/2903 29014KT CAVOK

Waarnemingen en weersverwachtingen van meer dan 4000 vliegvelden (METAR en TAF).

De beschikbare stations zijn de gele en rode punten op de kaart.

Ga met uw muis naar het station om de naam te zien.

Klik dan om waarnemingen en weersverwachtingen te zien.

kaart wijzigen: klik op de groene knoppen met een zwart kruis om in te zoomen, op de groene knop met een streepje om uit te zoomen of op de groene pijlen voor aangrenzende kaarten.


METAR-TAF: